Terminal Aerodrome Forecast
Issued by NWS

Home | Current Version | Previous Version | Graphics & Text | Print | Product List | Glossary On
Versions: 1 2 3 4 5 6 7 8 9 10 11 12 13 14 15 16 17 18 19 20 21 22 23 24 25 26 27 28 29 30 31 32 33 34 35 36 37 38 39 40 41 42 43 44 45 46 47 48 49 50
000
FTUS43 KGRB 242329
TAFRHI
TAF
KRHI 242329Z 2500/2524 09010G20KT 6SM -RASN SCT015 BKN060
      WS020/12045KT
      TEMPO 2500/2501 2SM -SN BR OVC015
     FM250100 11015G23KT 2SM -SN OVC015 WS020/12045KT
     FM250300 11015G28KT 1 1/2SM -SNRA OVC008 WS020/13050KT
     FM250500 13011G21KT 3/4SM -SNRA OVC003
     FM250700 17009KT 3/4SM -SN OVC003
     FM250900 24013G23KT 4SM -SN OVC003
     FM251800 26017G28KT P6SM SCT020
     FM252100 25015G25KT P6SM BKN020=

USA.gov is the U.S. government's official web portal to all federal, state and local government web resources and services.